Time;durP1;ratioP1;P1;durP2;ratioP2;P2;SDS_P1;SDS_P2;PMS_P1;PMS_P2;Temp;Humidity;BMP_temperature;BMP_pressure;BME280_temperature;BME280_humidity;BME280_pressure;Samples;Min_cycle;Max_cycle;Signal;HPM_P1;HPM_P2
2022/03/11 00:00:26;;;;;;;33.72;13.25;;;;;;;;;;5089961;28;20025;-81
2022/03/11 00:02:52;;;;;;;36.97;15.00;;;;;;;;;;5077767;28;20051;-81
2022/03/11 00:05:17;;;;;;;37.17;16.92;;;;;;;;;;5060047;28;20032;-82
2022/03/11 00:07:43;;;;;;;33.03;14.52;;;;;;;;;;5061068;28;20036;-81
2022/03/11 00:10:09;;;;;;;34.50;15.30;;;;;;;;;;5087838;28;20019;-80
2022/03/11 00:12:37;;;;;;;31.88;14.30;;;;;;;;;;5080967;28;20036;-81
2022/03/11 00:15:04;;;;;;;36.72;15.20;;;;;;;;;;5059087;28;20029;-82
2022/03/11 00:17:30;;;;;;;24.52;10.98;;;;;;;;;;5076446;28;20033;-81
2022/03/11 00:19:55;;;;;;;27.05;12.30;;;;;;;;;;5076215;28;20033;-81
2022/03/11 00:22:21;;;;;;;27.63;11.95;;;;;;;;;;5076598;28;20033;-82
2022/03/11 00:24:46;;;;;;;27.88;13.77;;;;;;;;;;5058809;28;20127;-81
2022/03/11 00:27:12;;;;;;;32.72;15.05;;;;;;;;;;5058438;28;20032;-82
2022/03/11 00:29:37;;;;;;;30.98;13.82;;;;;;;;;;5076896;28;20035;-82
2022/03/11 00:32:03;;;;;;;29.30;11.90;;;;;;;;;;5088542;28;20369;-81
2022/03/11 00:34:28;;;;;;;25.80;11.80;;;;;;;;;;5076076;28;20392;-80
2022/03/11 00:36:55;;;;;;;33.53;13.45;;;;;;;;;;5076433;28;20086;-81
2022/03/11 00:39:21;;;;;;;31.67;13.05;;;;;;;;;;5041902;28;20039;-82
2022/03/11 00:41:46;;;;;;;35.92;14.73;;;;;;;;;;5058274;28;20032;-82
2022/03/11 00:44:12;;;;;;;32.30;14.32;;;;;;;;;;5058350;28;20060;-82
2022/03/11 00:46:37;;;;;;;43.15;22.88;;;;;;;;;;5075015;28;20040;-81
2022/03/11 00:49:03;;;;;;;27.77;12.60;;;;;;;;;;5076351;28;20039;-80
2022/03/11 00:51:28;;;;;;;18.65;8.23;;;;;;;;;;5062488;28;20036;-82
2022/03/11 00:53:54;;;;;;;28.73;13.27;;;;;;;;;;5082514;28;20082;-83
2022/03/11 00:56:20;;;;;;;35.40;16.15;;;;;;;;;;5058136;28;20055;-82
2022/03/11 00:58:46;;;;;;;29.00;12.57;;;;;;;;;;5072779;28;20004;-81
2022/03/11 01:01:11;;;;;;;31.20;14.65;;;;;;;;;;5045557;28;20040;-81
2022/03/11 01:03:37;;;;;;;28.70;12.07;;;;;;;;;;5041306;28;20369;-83
2022/03/11 01:06:02;;;;;;;30.45;13.90;;;;;;;;;;5075764;28;20339;-81
2022/03/11 01:08:31;;;;;;;35.60;13.93;;;;;;;;;;5042631;28;20156;-81
2022/03/11 01:10:56;;;;;;;25.67;10.32;;;;;;;;;;5041418;28;20060;-81
2022/03/11 01:13:21;;;;;;;27.15;11.55;;;;;;;;;;5068309;28;20044;-81
2022/03/11 01:15:47;;;;;;;25.02;11.40;;;;;;;;;;5043549;28;20028;-80
2022/03/11 01:18:13;;;;;;;25.52;10.80;;;;;;;;;;5040985;28;20460;-81
2022/03/11 01:20:38;;;;;;;25.80;11.07;;;;;;;;;;5041074;28;20086;-80
2022/03/11 01:23:04;;;;;;;22.33;9.80;;;;;;;;;;5075631;28;20035;-81
2022/03/11 01:25:29;;;;;;;26.95;10.90;;;;;;;;;;5075613;28;20033;-81
2022/03/11 01:27:55;;;;;;;30.48;13.48;;;;;;;;;;5040568;28;20444;-81
2022/03/11 01:30:21;;;;;;;23.30;10.10;;;;;;;;;;5075030;28;20051;-81
2022/03/11 01:32:47;;;;;;;37.08;16.25;;;;;;;;;;5058137;28;20032;-80
2022/03/11 01:35:12;;;;;;;40.70;16.20;;;;;;;;;;5086509;28;20038;-81
2022/03/11 01:37:38;;;;;;;30.73;13.50;;;;;;;;;;5040872;28;20032;-81
2022/03/11 01:40:04;;;;;;;29.90;13.23;;;;;;;;;;5057421;28;20028;-81
2022/03/11 01:42:29;;;;;;;31.17;12.18;;;;;;;;;;5075314;28;20032;-82
2022/03/11 01:44:55;;;;;;;35.95;14.50;;;;;;;;;;5057278;28;20031;-81
2022/03/11 01:47:20;;;;;;;39.75;16.55;;;;;;;;;;5074675;28;20032;-81
2022/03/11 01:49:46;;;;;;;30.80;12.38;;;;;;;;;;5057320;28;20388;-81
2022/03/11 01:52:12;;;;;;;25.60;10.52;;;;;;;;;;5040397;28;20110;-81
2022/03/11 01:54:42;;;;;;;41.80;15.18;;;;;;;;;;5044257;28;20052;-80
2022/03/11 01:57:07;;;;;;;26.17;11.07;;;;;;;;;;5081419;28;20131;-82
2022/03/11 01:59:33;;;;;;;21.17;6.80;;;;;;;;;;5040330;28;20127;-81
2022/03/11 02:01:58;;;;;;;19.25;9.48;;;;;;;;;;5056967;28;20032;-82
2022/03/11 02:04:24;;;;;;;28.77;12.18;;;;;;;;;;5056763;28;20036;-81
2022/03/11 02:06:49;;;;;;;26.73;12.82;;;;;;;;;;5056663;28;20040;-82
2022/03/11 02:09:15;;;;;;;22.65;9.55;;;;;;;;;;5040092;28;20465;-80
2022/03/11 02:11:40;;;;;;;26.30;11.23;;;;;;;;;;5056606;28;20430;-81
2022/03/11 02:14:06;;;;;;;27.77;11.95;;;;;;;;;;5056409;28;20052;-81
2022/03/11 02:16:33;;;;;;;27.70;12.52;;;;;;;;;;5062682;28;20070;-81
2022/03/11 02:18:58;;;;;;;29.50;11.93;;;;;;;;;;5062046;28;20036;-81
2022/03/11 02:21:26;;;;;;;25.65;11.15;;;;;;;;;;5056576;28;20078;-81
2022/03/11 02:23:53;;;;;;;29.33;12.70;;;;;;;;;;5056936;28;20028;-81
2022/03/11 02:26:20;;;;;;;29.55;12.93;;;;;;;;;;5056298;28;20032;-81
2022/03/11 02:28:46;;;;;;;29.98;12.85;;;;;;;;;;5073927;28;20072;-80
2022/03/11 02:31:11;;;;;;;29.27;12.25;;;;;;;;;;5074257;28;20063;-81
2022/03/11 02:33:37;;;;;;;25.42;11.18;;;;;;;;;;5056436;28;20024;-80
2022/03/11 02:36:03;;;;;;;31.17;13.07;;;;;;;;;;5063244;28;20052;-80
2022/03/11 02:38:29;;;;;;;27.75;12.00;;;;;;;;;;5070333;28;20063;-80
2022/03/11 02:40:55;;;;;;;32.17;15.07;;;;;;;;;;5075836;28;20442;-80
2022/03/11 02:43:20;;;;;;;25.60;10.93;;;;;;;;;;5074225;28;20221;-81
2022/03/11 02:45:46;;;;;;;26.05;11.52;;;;;;;;;;5074065;28;20082;-81
2022/03/11 02:48:11;;;;;;;27.73;11.45;;;;;;;;;;5056429;28;20468;-81
2022/03/11 02:50:37;;;;;;;30.77;13.65;;;;;;;;;;5056267;28;20025;-81
2022/03/11 02:53:02;;;;;;;25.38;10.48;;;;;;;;;;5056313;28;20059;-81
2022/03/11 02:55:28;;;;;;;27.55;11.05;;;;;;;;;;5074299;28;20021;-81
2022/03/11 02:57:53;;;;;;;23.70;9.88;;;;;;;;;;5061070;28;20005;-82
2022/03/11 03:00:19;;;;;;;28.70;12.15;;;;;;;;;;5084263;28;20029;-82
2022/03/11 03:02:44;;;;;;;24.90;12.07;;;;;;;;;;5074555;28;20031;-81
2022/03/11 03:05:10;;;;;;;26.88;10.75;;;;;;;;;;5074876;28;20049;-81
2022/03/11 03:07:36;;;;;;;19.08;8.32;;;;;;;;;;5074219;28;20043;-81
2022/03/11 03:10:01;;;;;;;30.15;12.93;;;;;;;;;;5077000;28;20020;-81
2022/03/11 03:12:27;;;;;;;24.08;11.07;;;;;;;;;;5080152;28;20033;-80
2022/03/11 03:14:53;;;;;;;25.88;10.02;;;;;;;;;;5097063;28;20020;-81
2022/03/11 03:17:19;;;;;;;20.77;9.90;;;;;;;;;;5077684;28;20063;-80
2022/03/11 03:19:45;;;;;;;23.05;10.75;;;;;;;;;;5057158;28;20024;-81
2022/03/11 03:22:11;;;;;;;29.13;13.73;;;;;;;;;;5092956;28;20024;-79
2022/03/11 03:24:37;;;;;;;23.42;10.10;;;;;;;;;;5088930;28;20032;-79
2022/03/11 03:27:02;;;;;;;27.00;10.82;;;;;;;;;;5081425;28;20490;-81
2022/03/11 03:29:28;;;;;;;32.45;12.68;;;;;;;;;;5059485;28;20408;-80
2022/03/11 03:31:57;;;;;;;32.72;12.70;;;;;;;;;;5059840;28;20060;-81
2022/03/11 03:34:34;;;;;;;28.40;10.32;;;;;;;;;;5077365;28;20119;-81
2022/03/11 03:37:01;;;;;;;27.13;11.45;;;;;;;;;;5059824;28;20134;-81
2022/03/11 03:39:27;;;;;;;25.70;11.18;;;;;;;;;;5043312;28;20114;-80
2022/03/11 03:41:53;;;;;;;22.75;9.18;;;;;;;;;;5053122;28;20731;-80
2022/03/11 03:44:18;;;;;;;38.50;14.02;;;;;;;;;;5043108;28;20032;-81
2022/03/11 03:46:44;;;;;;;55.67;17.83;;;;;;;;;;5077709;28;20080;-79
2022/03/11 03:49:09;;;;;;;37.97;13.13;;;;;;;;;;5059609;28;20434;-81
2022/03/11 03:51:37;;;;;;;30.27;10.95;;;;;;;;;;5077236;28;20463;-81
2022/03/11 03:54:02;;;;;;;34.13;11.85;;;;;;;;;;5077672;28;20032;-81
2022/03/11 03:56:28;;;;;;;35.35;13.60;;;;;;;;;;5077019;28;20167;-80
2022/03/11 03:58:53;;;;;;;30.88;12.90;;;;;;;;;;5061528;28;20024;-81
2022/03/11 04:01:19;;;;;;;29.95;12.45;;;;;;;;;;5085621;28;20086;-81
2022/03/11 04:03:44;;;;;;;22.60;10.18;;;;;;;;;;5077058;28;20025;-81
2022/03/11 04:06:10;;;;;;;19.83;8.52;;;;;;;;;;5076785;28;20132;-81
2022/03/11 04:08:35;;;;;;;22.40;10.27;;;;;;;;;;5076947;28;20036;-80
2022/03/11 04:11:01;;;;;;;27.00;10.55;;;;;;;;;;5092048;28;20024;-81
2022/03/11 04:13:26;;;;;;;33.83;13.52;;;;;;;;;;5064720;28;20036;-81
2022/03/11 04:15:52;;;;;;;22.05;9.85;;;;;;;;;;5076769;28;20021;-81
2022/03/11 04:18:17;;;;;;;23.58;10.20;;;;;;;;;;5076749;28;20043;-81
2022/03/11 04:20:43;;;;;;;26.67;11.30;;;;;;;;;;5082145;28;20028;-81
2022/03/11 04:23:08;;;;;;;28.48;11.00;;;;;;;;;;5081471;28;20024;-81
2022/03/11 04:25:34;;;;;;;21.55;9.43;;;;;;;;;;5076244;28;20020;-82
2022/03/11 04:27:59;;;;;;;26.55;11.32;;;;;;;;;;5058607;28;20052;-81
2022/03/11 04:30:25;;;;;;;17.33;8.30;;;;;;;;;;5076396;28;20025;-82
2022/03/11 04:32:50;;;;;;;29.67;10.98;;;;;;;;;;5058366;28;20056;-81
2022/03/11 04:35:16;;;;;;;26.10;10.48;;;;;;;;;;5058453;28;20036;-82
2022/03/11 04:37:41;;;;;;;28.73;11.55;;;;;;;;;;5076253;28;20438;-81
2022/03/11 04:40:07;;;;;;;23.42;9.90;;;;;;;;;;5076036;28;20138;-81
2022/03/11 04:42:34;;;;;;;29.48;12.20;;;;;;;;;;5086726;28;20115;-81
2022/03/11 04:45:00;;;;;;;28.10;11.23;;;;;;;;;;5076554;28;20104;-81
2022/03/11 04:47:26;;;;;;;28.95;11.07;;;;;;;;;;5075891;28;20132;-81
2022/03/11 04:49:52;;;;;;;28.77;11.45;;;;;;;;;;5058246;28;20040;-81
2022/03/11 04:52:17;;;;;;;29.65;11.35;;;;;;;;;;5058335;28;20025;-81
2022/03/11 04:54:43;;;;;;;32.40;12.88;;;;;;;;;;5057934;28;20028;-81
2022/03/11 04:57:08;;;;;;;27.92;11.68;;;;;;;;;;5075906;28;20020;-82
2022/03/11 04:59:34;;;;;;;34.25;13.25;;;;;;;;;;5075860;28;20147;-80
2022/03/11 05:01:59;;;;;;;33.67;11.70;;;;;;;;;;5057970;28;20024;-81
2022/03/11 05:04:25;;;;;;;44.50;12.55;;;;;;;;;;5086647;28;20029;-81
2022/03/11 05:06:50;;;;;;;29.90;12.10;;;;;;;;;;5075543;28;20028;-81
2022/03/11 05:09:15;;;;;;;41.67;16.05;;;;;;;;;;5075548;28;20025;-81
2022/03/11 05:11:41;;;;;;;31.20;12.00;;;;;;;;;;5075687;28;20024;-81
2022/03/11 05:14:06;;;;;;;27.67;11.30;;;;;;;;;;5041367;28;20074;-81
2022/03/11 05:16:32;;;;;;;38.13;14.15;;;;;;;;;;5057736;28;20056;-81
2022/03/11 05:18:57;;;;;;;52.83;18.88;;;;;;;;;;5041151;28;20094;-80
2022/03/11 05:21:23;;;;;;;56.42;19.50;;;;;;;;;;5058272;28;20025;-80
2022/03/11 05:23:48;;;;;;;53.55;17.60;;;;;;;;;;5063041;28;20047;-81
2022/03/11 05:26:26;;;;;;;53.60;17.65;;;;;;;;;;5074867;28;20067;-80
2022/03/11 05:28:58;;;;;;;76.30;22.98;;;;;;;;;;5095233;28;20043;-81
2022/03/11 05:31:25;;;;;;;64.60;22.15;;;;;;;;;;5094568;28;20028;-82
2022/03/11 05:33:50;;;;;;;47.55;17.27;;;;;;;;;;5095386;28;20061;-82
2022/03/11 05:36:16;;;;;;;48.50;17.70;;;;;;;;;;5060802;28;20035;-82
2022/03/11 05:38:42;;;;;;;50.00;19.38;;;;;;;;;;5060454;28;20027;-81
2022/03/11 05:41:07;;;;;;;46.55;17.17;;;;;;;;;;5060555;28;20078;-80
2022/03/11 05:43:33;;;;;;;57.70;20.52;;;;;;;;;;5077752;28;20031;-81
2022/03/11 05:45:58;;;;;;;57.42;20.17;;;;;;;;;;5106545;28;20012;-82
2022/03/11 05:48:24;;;;;;;61.53;23.45;;;;;;;;;;5096474;28;20023;-81
2022/03/11 05:50:49;;;;;;;49.70;18.73;;;;;;;;;;5066640;28;20437;-83
2022/03/11 05:53:31;;;;;;;52.47;19.88;;;;;;;;;;5078968;28;20024;-81
2022/03/11 05:56:03;;;;;;;61.38;22.08;;;;;;;;;;5062753;28;20475;-85
2022/03/11 05:58:31;;;;;;;68.55;22.05;;;;;;;;;;5058900;28;20056;-85
2022/03/11 06:00:57;;;;;;;55.63;20.17;;;;;;;;;;5089065;28;20039;-81
2022/03/11 06:03:26;;;;;;;59.60;22.45;;;;;;;;;;5077959;28;20032;-81
2022/03/11 06:05:52;;;;;;;66.22;24.58;;;;;;;;;;5054210;28;20025;-82
2022/03/11 06:08:17;;;;;;;60.95;23.13;;;;;;;;;;5085822;28;20448;-80
2022/03/11 06:10:47;;;;;;;63.53;22.33;;;;;;;;;;5070057;28;20036;-80
2022/03/11 06:13:14;;;;;;;55.55;21.05;;;;;;;;;;5130195;22;20146;-81
2022/03/11 06:15:41;;;;;;;60.58;21.98;;;;;;;;;;5078337;28;20030;-82
2022/03/11 06:18:27;;;;;;;74.90;30.40;;;;;;;;;;5080271;28;20138;-81
2022/03/11 06:20:52;;;;;;;52.88;18.73;;;;;;;;;;5115920;28;20046;-82
2022/03/11 06:23:20;;;;;;;43.83;17.42;;;;;;;;;;5093996;28;20123;-81
2022/03/11 06:25:46;;;;;;;56.95;21.17;;;;;;;;;;5091788;28;20140;-80
2022/03/11 06:28:12;;;;;;;42.95;15.95;;;;;;;;;;5097364;28;20364;-80
2022/03/11 06:30:38;;;;;;;45.58;16.40;;;;;;;;;;5108226;28;20118;-82
2022/03/11 06:33:03;;;;;;;37.67;16.13;;;;;;;;;;5064308;28;20444;-83
2022/03/11 06:35:32;;;;;;;35.30;15.15;;;;;;;;;;5078695;28;20429;-80
2022/03/11 06:37:57;;;;;;;31.67;11.90;;;;;;;;;;5078628;28;20032;-79
2022/03/11 06:40:23;;;;;;;31.42;13.45;;;;;;;;;;5061103;28;20126;-82
2022/03/11 06:42:49;;;;;;;39.30;12.90;;;;;;;;;;5074765;28;20135;-80
2022/03/11 06:45:15;;;;;;;26.20;10.57;;;;;;;;;;5083831;28;20024;-82
2022/03/11 06:47:46;;;;;;;23.45;10.23;;;;;;;;;;5065042;28;20036;-80
2022/03/11 06:50:11;;;;;;;33.08;12.98;;;;;;;;;;5097871;28;20059;-82
2022/03/11 06:52:37;;;;;;;35.85;15.80;;;;;;;;;;5100873;28;20402;-82
2022/03/11 06:55:03;;;;;;;30.30;11.57;;;;;;;;;;5083631;28;20156;-82
2022/03/11 06:57:29;;;;;;;32.97;13.65;;;;;;;;;;5096796;28;20024;-80
2022/03/11 07:00:04;;;;;;;40.78;15.45;;;;;;;;;;5107511;28;20028;-82
2022/03/11 07:02:36;;;;;;;48.00;19.23;;;;;;;;;;5082289;28;20048;-81
2022/03/11 07:05:06;;;;;;;34.67;15.82;;;;;;;;;;5079399;28;20145;-80
2022/03/11 07:07:33;;;;;;;29.00;13.45;;;;;;;;;;5096428;28;20054;-81
2022/03/11 07:10:12;;;;;;;32.22;13.30;;;;;;;;;;5093866;28;20035;-82
2022/03/11 07:12:37;;;;;;;23.80;11.10;;;;;;;;;;5078289;28;20480;-81
2022/03/11 07:15:05;;;;;;;25.37;11.67;;;;;;;;;;4997081;28;2135045;-80
2022/03/11 07:17:32;;;;;;;33.20;13.38;;;;;;;;;;5080354;28;20032;-79
2022/03/11 07:20:01;;;;;;;23.40;12.70;;;;;;;;;;5080144;28;20039;-81
2022/03/11 07:22:30;;;;;;;20.23;11.00;;;;;;;;;;5078584;28;20031;-79
2022/03/11 07:25:11;;;;;;;26.05;13.25;;;;;;;;;;5094219;28;20019;-79
2022/03/11 07:27:37;;;;;;;28.90;13.30;;;;;;;;;;5124763;28;20038;-80
2022/03/11 07:30:03;;;;;;;26.10;13.13;;;;;;;;;;5120720;28;20461;-80
2022/03/11 07:32:29;;;;;;;30.70;14.45;;;;;;;;;;5100023;28;20028;-84
2022/03/11 07:34:59;;;;;;;38.83;19.17;;;;;;;;;;5104098;28;20039;-81
2022/03/11 07:37:24;;;;;;;26.20;11.82;;;;;;;;;;5117394;28;20031;-83
2022/03/11 07:39:50;;;;;;;30.38;13.80;;;;;;;;;;5079769;28;20024;-84
2022/03/11 07:42:15;;;;;;;18.88;10.48;;;;;;;;;;5094596;28;20032;-84
2022/03/11 07:44:42;;;;;;;15.55;8.60;;;;;;;;;;5082824;28;20030;-80
2022/03/11 07:47:07;;;;;;;20.38;10.77;;;;;;;;;;5050413;28;20040;-83
2022/03/11 07:49:33;;;;;;;17.67;10.18;;;;;;;;;;5114349;28;20085;-81
2022/03/11 07:51:58;;;;;;;15.48;8.40;;;;;;;;;;5108065;28;20031;-81
2022/03/11 07:54:30;;;;;;;19.63;12.13;;;;;;;;;;5097502;28;20448;-81
2022/03/11 07:56:56;;;;;;;15.60;9.45;;;;;;;;;;5082497;28;20023;-79
2022/03/11 07:59:21;;;;;;;17.58;10.07;;;;;;;;;;5114697;28;20035;-79
2022/03/11 08:01:47;;;;;;;14.43;8.20;;;;;;;;;;5114291;28;20165;-79
2022/03/11 08:04:13;;;;;;;16.45;8.70;;;;;;;;;;5099682;28;20042;-78
2022/03/11 08:06:40;;;;;;;14.98;8.57;;;;;;;;;;5103010;28;20035;-78
2022/03/11 08:09:05;;;;;;;16.45;7.70;;;;;;;;;;5095166;28;20122;-79
2022/03/11 08:11:31;;;;;;;18.27;8.77;;;;;;;;;;5092737;28;20077;-78
2022/03/11 08:14:02;;;;;;;18.15;11.68;;;;;;;;;;5113661;28;20461;-79
2022/03/11 08:16:28;;;;;;;19.95;10.77;;;;;;;;;;5112679;28;20020;-76
2022/03/11 08:18:53;;;;;;;15.75;8.95;;;;;;;;;;5118328;27;20023;-77
2022/03/11 08:21:19;;;;;;;18.08;9.55;;;;;;;;;;5103425;27;20038;-77
2022/03/11 08:23:44;;;;;;;15.70;8.65;;;;;;;;;;5117885;28;20177;-77
2022/03/11 08:26:11;;;;;;;14.75;8.98;;;;;;;;;;5108482;27;20027;-78
2022/03/11 08:28:37;;;;;;;14.30;8.40;;;;;;;;;;5107001;28;20492;-79
2022/03/11 08:31:19;;;;;;;13.23;7.00;;;;;;;;;;5111603;28;20161;-78
2022/03/11 08:33:45;;;;;;;16.38;8.60;;;;;;;;;;5104527;28;20038;-77
2022/03/11 08:36:11;;;;;;;20.13;9.63;;;;;;;;;;5092160;28;20360;-77
2022/03/11 08:38:37;;;;;;;18.63;9.88;;;;;;;;;;5125605;27;20118;-80
2022/03/11 08:41:06;;;;;;;20.60;9.07;;;;;;;;;;5098413;27;20039;-78
2022/03/11 08:43:38;;;;;;;17.02;8.45;;;;;;;;;;5094174;28;20028;-77
2022/03/11 08:46:10;;;;;;;16.45;8.80;;;;;;;;;;5092899;28;20469;-78
2022/03/11 08:48:36;;;;;;;16.98;8.13;;;;;;;;;;5116276;27;20055;-79
2022/03/11 08:51:20;;;;;;;14.63;8.55;;;;;;;;;;5076000;28;20113;-78
2022/03/11 08:53:49;;;;;;;16.33;8.50;;;;;;;;;;5078724;28;20040;-80
2022/03/11 08:56:20;;;;;;;25.48;11.88;;;;;;;;;;5067909;28;20362;-79
2022/03/11 08:58:49;;;;;;;;;;;;;;;;;;5106161;28;20403;-80
2022/03/11 09:01:15;;;;;;;27.45;11.98;;;;;;;;;;5096282;28;19912;-79
2022/03/11 09:03:41;;;;;;;20.85;10.13;;;;;;;;;;5115860;28;20157;-78
2022/03/11 09:06:09;;;;;;;21.67;9.80;;;;;;;;;;5115844;28;20027;-79
2022/03/11 09:08:35;;;;;;;20.90;10.07;;;;;;;;;;5098133;28;20349;-77
2022/03/11 09:11:00;;;;;;;18.80;9.10;;;;;;;;;;5100791;28;20028;-79
2022/03/11 09:13:26;;;;;;;21.58;9.48;;;;;;;;;;5094826;28;20036;-78
2022/03/11 09:15:51;;;;;;;27.15;12.40;;;;;;;;;;5099467;28;20119;-80
2022/03/11 09:18:18;;;;;;;20.55;9.95;;;;;;;;;;5112494;28;20515;-78
2022/03/11 09:20:43;;;;;;;25.00;11.10;;;;;;;;;;5112524;28;20034;-77
2022/03/11 09:23:11;;;;;;;40.65;13.77;;;;;;;;;;5077577;28;20122;-76
2022/03/11 09:25:37;;;;;;;47.28;15.65;;;;;;;;;;5118804;27;20058;-74
2022/03/11 09:28:03;;;;;;;54.63;16.13;;;;;;;;;;5106837;28;20040;-77
2022/03/11 09:30:31;;;;;;;320.88;63.03;;;;;;;;;;5114214;27;20088;-79
2022/03/11 09:32:57;;;;;;;251.88;48.65;;;;;;;;;;5115564;28;20030;-77
2022/03/11 09:35:23;;;;;;;36.60;12.63;;;;;;;;;;5114105;27;20031;-78
2022/03/11 09:37:49;;;;;;;27.70;10.48;;;;;;;;;;5102737;28;20039;-77
2022/03/11 09:40:16;;;;;;;35.83;12.15;;;;;;;;;;5100953;28;20080;-77
2022/03/11 09:42:42;;;;;;;26.55;10.52;;;;;;;;;;5116488;28;20024;-78
2022/03/11 09:45:08;;;;;;;27.02;10.98;;;;;;;;;;5079479;28;20477;-78
2022/03/11 09:47:33;;;;;;;27.33;11.40;;;;;;;;;;5103199;28;20040;-78
2022/03/11 09:49:59;;;;;;;21.40;9.93;;;;;;;;;;5073953;28;20031;-79
2022/03/11 09:52:24;;;;;;;24.25;9.90;;;;;;;;;;5091255;28;20039;-78
2022/03/11 09:54:59;;;;;;;48.30;17.15;;;;;;;;;;5095381;28;20547;-78
2022/03/11 09:57:27;;;;;;;20.67;9.13;;;;;;;;;;5096540;28;20031;-78
2022/03/11 09:59:53;;;;;;;26.90;11.00;;;;;;;;;;5107954;28;20035;-77
2022/03/11 10:02:18;;;;;;;79.05;19.45;;;;;;;;;;5084614;28;20114;-74
2022/03/11 10:04:51;;;;;;;27.35;11.48;;;;;;;;;;5113262;28;20024;-76
2022/03/11 10:07:38;;;;;;;23.52;10.25;;;;;;;;;;5111823;28;20039;-80
2022/03/11 10:10:16;;;;;;;31.73;11.73;;;;;;;;;;5112591;28;20024;-77
2022/03/11 10:12:43;;;;;;;31.88;11.82;;;;;;;;;;5113330;28;20032;-78
2022/03/11 10:15:08;;;;;;;21.65;9.95;;;;;;;;;;5114344;28;20043;-77
2022/03/11 10:17:39;;;;;;;20.23;9.52;;;;;;;;;;5112276;28;20065;-77
2022/03/11 10:20:06;;;;;;;;;;;;;;;;;;5094565;28;20180;-78
2022/03/11 10:22:32;;;;;;;39.97;15.82;;;;;;;;;;5096548;28;20040;-76
2022/03/11 10:25:14;;;;;;;25.20;10.77;;;;;;;;;;5114964;28;20540;-78
2022/03/11 10:27:56;;;;;;;22.08;9.70;;;;;;;;;;5080285;28;20474;-76
2022/03/11 10:30:23;;;;;;;22.35;9.63;;;;;;;;;;5095492;28;20038;-77
2022/03/11 10:32:55;;;;;;;21.77;10.10;;;;;;;;;;5113192;28;20379;-78
2022/03/11 10:35:28;;;;;;;22.00;10.10;;;;;;;;;;5094858;28;20074;-76
2022/03/11 10:38:08;;;;;;;22.90;11.15;;;;;;;;;;5097581;28;20036;-79
2022/03/11 10:40:35;;;;;;;23.35;11.10;;;;;;;;;;5102927;28;20056;-75
2022/03/11 10:43:12;;;;;;;26.20;11.88;;;;;;;;;;5080603;28;20051;-78
2022/03/11 10:45:50;;;;;;;30.27;12.40;;;;;;;;;;5091434;28;20024;-78
2022/03/11 10:48:16;;;;;;;26.92;11.43;;;;;;;;;;5094096;28;20088;-78
2022/03/11 10:50:42;;;;;;;30.15;13.00;;;;;;;;;;5091714;28;20028;-78
2022/03/11 10:53:08;;;;;;;37.80;14.55;;;;;;;;;;5091389;28;20039;-78
2022/03/11 10:55:34;;;;;;;50.55;16.30;;;;;;;;;;5090648;28;20150;-80
2022/03/11 10:58:01;;;;;;;29.02;12.60;;;;;;;;;;5089643;28;20035;-76
2022/03/11 11:00:28;;;;;;;24.38;12.27;;;;;;;;;;5090755;28;20339;-76
2022/03/11 11:02:58;;;;;;;25.70;12.57;;;;;;;;;;5094756;28;20031;-78
2022/03/11 11:05:24;;;;;;;31.63;14.25;;;;;;;;;;5091413;28;20028;-79
2022/03/11 11:07:49;;;;;;;31.88;13.90;;;;;;;;;;5091619;28;20036;-77
2022/03/11 11:10:17;;;;;;;33.15;13.38;;;;;;;;;;5093037;28;20434;-76
2022/03/11 11:12:42;;;;;;;49.25;17.58;;;;;;;;;;5092608;28;20177;-80
2022/03/11 11:15:12;;;;;;;30.08;13.27;;;;;;;;;;5093922;28;20445;-78
2022/03/11 11:17:39;;;;;;;37.47;15.23;;;;;;;;;;5058827;28;20035;-77
2022/03/11 11:20:09;;;;;;;46.80;17.70;;;;;;;;;;5093559;28;20426;-77
2022/03/11 11:22:36;;;;;;;26.48;11.85;;;;;;;;;;5077351;28;20025;-77
2022/03/11 11:25:05;;;;;;;32.45;12.93;;;;;;;;;;5075666;28;20020;-78
2022/03/11 11:27:31;;;;;;;32.77;15.60;;;;;;;;;;5093606;28;20398;-77
2022/03/11 11:29:56;;;;;;;23.70;12.10;;;;;;;;;;5062741;28;20346;-75
2022/03/11 11:32:22;;;;;;;28.13;12.35;;;;;;;;;;5113987;28;20154;-77
2022/03/11 11:34:47;;;;;;;24.80;11.82;;;;;;;;;;5114365;28;20032;-77
2022/03/11 11:37:42;;;;;;;29.50;13.25;;;;;;;;;;5110398;28;20023;-78
2022/03/11 11:40:21;;;;;;;41.55;15.98;;;;;;;;;;5096462;28;20107;-77
2022/03/11 11:43:12;;;;;;;34.05;13.70;;;;;;;;;;5101466;28;20030;-78
2022/03/11 11:45:42;;;;;;;24.15;11.13;;;;;;;;;;5113125;28;20453;-74
2022/03/11 11:48:41;;;;;;;25.38;11.52;;;;;;;;;;5110178;28;20039;-77
2022/03/11 11:51:13;;;;;;;35.60;15.98;;;;;;;;;;5113900;28;20024;-78
2022/03/11 11:53:51;;;;;;;49.65;19.40;;;;;;;;;;5114247;28;20034;-78
2022/03/11 11:56:30;;;;;;;37.28;14.60;;;;;;;;;;5115195;28;20024;-79
2022/03/11 11:58:57;;;;;;;40.53;15.98;;;;;;;;;;5115091;28;20035;-77
2022/03/11 12:01:42;;;;;;;36.05;15.80;;;;;;;;;;5115997;28;20032;-77
2022/03/11 12:04:33;;;;;;;34.30;14.25;;;;;;;;;;5081814;28;20031;-77
2022/03/11 12:06:59;;;;;;;26.65;12.90;;;;;;;;;;5097441;28;20027;-78
2022/03/11 12:09:45;;;;;;;26.50;11.93;;;;;;;;;;5114601;28;20047;-77
2022/03/11 12:12:30;;;;;;;27.42;13.48;;;;;;;;;;5116956;28;20024;-82
2022/03/11 12:15:04;;;;;;;31.13;12.40;;;;;;;;;;5117707;28;20043;-82
2022/03/11 12:17:45;;;;;;;27.90;11.48;;;;;;;;;;5118709;28;20028;-82
2022/03/11 12:20:46;;;;;;;25.02;11.85;;;;;;;;;;5116567;28;20047;-82
2022/03/11 12:23:14;;;;;;;33.13;13.90;;;;;;;;;;5124850;28;20035;-83
2022/03/11 12:25:44;;;;;;;26.05;11.88;;;;;;;;;;5097262;28;20092;-83
2022/03/11 12:28:16;;;;;;;33.63;14.05;;;;;;;;;;5098099;28;20031;-83
2022/03/11 12:30:47;;;;;;;27.15;12.60;;;;;;;;;;5081293;28;20023;-82
2022/03/11 12:33:17;;;;;;;32.55;13.07;;;;;;;;;;5115211;28;20479;-82
2022/03/11 12:35:44;;;;;;;32.05;14.32;;;;;;;;;;5115826;28;20027;-82
2022/03/11 12:38:16;;;;;;;46.90;16.58;;;;;;;;;;5114382;28;20040;-82
2022/03/11 12:40:42;;;;;;;38.72;13.60;;;;;;;;;;5098571;28;20059;-81
2022/03/11 12:43:11;;;;;;;39.95;14.02;;;;;;;;;;5124179;28;20032;-82
2022/03/11 12:45:37;;;;;;;36.25;15.45;;;;;;;;;;5097134;28;20031;-83
2022/03/11 12:48:03;;;;;;;29.85;13.68;;;;;;;;;;5115277;28;20283;-83
2022/03/11 12:50:28;;;;;;;31.83;13.90;;;;;;;;;;5115812;28;20028;-81
2022/03/11 12:52:58;;;;;;;34.63;15.05;;;;;;;;;;5097902;28;20028;-81
2022/03/11 12:55:30;;;;;;;37.28;15.25;;;;;;;;;;5098719;28;20126;-80
2022/03/11 12:57:55;;;;;;;41.83;16.23;;;;;;;;;;5098687;28;20031;-80
2022/03/11 13:00:22;;;;;;;35.45;14.25;;;;;;;;;;5083306;28;20027;-81
2022/03/11 13:02:49;;;;;;;29.42;13.18;;;;;;;;;;5073367;28;20118;-81
2022/03/11 13:05:19;;;;;;;34.58;15.13;;;;;;;;;;5116518;28;20024;-83
2022/03/11 13:07:45;;;;;;;38.78;16.67;;;;;;;;;;5081188;28;20129;-83
2022/03/11 13:10:23;;;;;;;41.88;16.17;;;;;;;;;;5081506;28;20115;-83
2022/03/11 13:12:52;;;;;;;41.15;16.38;;;;;;;;;;5098363;28;20038;-82
2022/03/11 13:15:23;;;;;;;30.80;13.63;;;;;;;;;;5082003;28;20069;-84
2022/03/11 13:18:09;;;;;;;30.23;13.57;;;;;;;;;;5098577;28;20027;-83
2022/03/11 13:20:45;;;;;;;34.90;14.32;;;;;;;;;;5118452;28;20027;-84
2022/03/11 13:23:16;;;;;;;62.72;21.90;;;;;;;;;;5104091;28;20031;-83
2022/03/11 13:25:48;;;;;;;72.82;25.25;;;;;;;;;;5116163;28;20088;-83
2022/03/11 13:28:57;;;;;;;46.58;18.65;;;;;;;;;;5081707;28;20198;-82
2022/03/11 13:31:33;;;;;;;40.17;15.82;;;;;;;;;;5084034;28;20027;-82
2022/03/11 13:34:05;;;;;;;40.08;16.73;;;;;;;;;;5097887;28;20081;-83
2022/03/11 13:36:39;;;;;;;46.13;17.17;;;;;;;;;;5115503;28;20031;-83
2022/03/11 13:39:10;;;;;;;34.17;15.43;;;;;;;;;;5097983;28;20019;-83
2022/03/11 13:41:47;;;;;;;34.80;14.75;;;;;;;;;;5106433;28;20034;-83
2022/03/11 13:44:28;;;;;;;42.40;15.52;;;;;;;;;;5086717;28;20456;-83
2022/03/11 13:47:01;;;;;;;34.13;14.75;;;;;;;;;;5097374;28;20034;-82
2022/03/11 13:49:40;;;;;;;46.83;17.45;;;;;;;;;;5098566;28;20023;-82
2022/03/11 13:52:06;;;;;;;32.13;14.32;;;;;;;;;;5115275;28;20027;-82
2022/03/11 13:54:34;;;;;;;33.65;15.05;;;;;;;;;;5080266;28;20092;-81
2022/03/11 13:57:18;;;;;;;42.22;16.17;;;;;;;;;;5097449;28;20349;-82
2022/03/11 13:59:45;;;;;;;39.83;15.57;;;;;;;;;;5097371;28;20384;-82
2022/03/11 14:02:19;;;;;;;33.20;14.43;;;;;;;;;;5082560;28;20429;-82
2022/03/11 14:04:45;;;;;;;42.13;15.15;;;;;;;;;;5099840;28;20028;-82
2022/03/11 14:07:15;;;;;;;50.10;18.63;;;;;;;;;;5126961;28;20064;-81
2022/03/11 14:09:53;;;;;;;47.22;18.73;;;;;;;;;;5099727;28;20078;-82
2022/03/11 14:12:25;;;;;;;64.68;24.63;;;;;;;;;;5063803;28;20090;-82
2022/03/11 14:14:51;;;;;;;45.15;16.73;;;;;;;;;;5096813;28;20039;-82
2022/03/11 14:17:33;;;;;;;42.72;15.82;;;;;;;;;;5097793;28;20043;-82
2022/03/11 14:19:59;;;;;;;46.92;18.92;;;;;;;;;;5095852;28;20027;-82
2022/03/11 14:22:25;;;;;;;69.70;29.20;;;;;;;;;;5062583;28;20444;-82
2022/03/11 14:24:50;;;;;;;131.50;48.70;;;;;;;;;;5105495;28;20028;-83